sensor_id;sensor_type;location;lat;lon;timestamp;P1;durP1;ratioP1;P2;durP2;ratioP2
70148;SDS011;57514;52.164;5.282;2023-01-23T00:01:27;17.25;;;6.57;;
70148;SDS011;57514;52.164;5.282;2023-01-23T00:03:54;16.25;;;6.97;;
70148;SDS011;57514;52.164;5.282;2023-01-23T00:06:23;22.40;;;7.45;;
70148;SDS011;57514;52.164;5.282;2023-01-23T00:08:50;18.20;;;7.78;;
70148;SDS011;57514;52.164;5.282;2023-01-23T00:11:18;19.33;;;8.10;;
70148;SDS011;57514;52.164;5.282;2023-01-23T00:13:46;20.35;;;7.65;;
70148;SDS011;57514;52.164;5.282;2023-01-23T00:16:15;16.73;;;7.50;;
70148;SDS011;57514;52.164;5.282;2023-01-23T00:18:42;21.20;;;7.45;;
70148;SDS011;57514;52.164;5.282;2023-01-23T00:21:10;20.58;;;7.45;;
70148;SDS011;57514;52.164;5.282;2023-01-23T00:23:40;18.88;;;6.93;;
70148;SDS011;57514;52.164;5.282;2023-01-23T00:26:10;18.90;;;7.43;;
70148;SDS011;57514;52.164;5.282;2023-01-23T00:28:39;19.40;;;8.32;;
70148;SDS011;57514;52.164;5.282;2023-01-23T00:31:07;18.13;;;7.28;;
70148;SDS011;57514;52.164;5.282;2023-01-23T00:33:35;18.52;;;8.48;;
70148;SDS011;57514;52.164;5.282;2023-01-23T00:36:02;18.08;;;7.28;;
70148;SDS011;57514;52.164;5.282;2023-01-23T00:38:30;22.10;;;7.53;;
70148;SDS011;57514;52.164;5.282;2023-01-23T00:40:57;18.35;;;7.78;;
70148;SDS011;57514;52.164;5.282;2023-01-23T00:43:25;18.65;;;7.68;;
70148;SDS011;57514;52.164;5.282;2023-01-23T00:45:52;17.45;;;8.15;;
70148;SDS011;57514;52.164;5.282;2023-01-23T00:48:19;18.20;;;7.47;;
70148;SDS011;57514;52.164;5.282;2023-01-23T00:50:46;19.20;;;7.55;;
70148;SDS011;57514;52.164;5.282;2023-01-23T00:53:14;15.73;;;6.70;;
70148;SDS011;57514;52.164;5.282;2023-01-23T00:55:41;20.27;;;7.63;;
70148;SDS011;57514;52.164;5.282;2023-01-23T00:58:09;19.08;;;7.75;;
70148;SDS011;57514;52.164;5.282;2023-01-23T01:00:36;17.02;;;7.28;;
70148;SDS011;57514;52.164;5.282;2023-01-23T01:03:04;21.38;;;7.68;;
70148;SDS011;57514;52.164;5.282;2023-01-23T01:05:31;22.40;;;7.63;;
70148;SDS011;57514;52.164;5.282;2023-01-23T01:07:58;16.67;;;7.50;;
70148;SDS011;57514;52.164;5.282;2023-01-23T01:10:26;20.85;;;7.07;;
70148;SDS011;57514;52.164;5.282;2023-01-23T01:12:55;16.83;;;7.22;;
70148;SDS011;57514;52.164;5.282;2023-01-23T01:15:23;19.63;;;8.55;;
70148;SDS011;57514;52.164;5.282;2023-01-23T01:17:50;19.17;;;7.30;;
70148;SDS011;57514;52.164;5.282;2023-01-23T01:20:23;20.77;;;7.53;;
70148;SDS011;57514;52.164;5.282;2023-01-23T01:22:55;19.58;;;7.78;;
70148;SDS011;57514;52.164;5.282;2023-01-23T01:25:22;21.95;;;8.68;;
70148;SDS011;57514;52.164;5.282;2023-01-23T01:27:52;18.25;;;7.80;;
70148;SDS011;57514;52.164;5.282;2023-01-23T01:30:19;18.67;;;7.10;;
70148;SDS011;57514;52.164;5.282;2023-01-23T01:32:47;20.45;;;7.95;;
70148;SDS011;57514;52.164;5.282;2023-01-23T01:35:14;23.23;;;7.95;;
70148;SDS011;57514;52.164;5.282;2023-01-23T01:37:41;18.85;;;7.10;;
70148;SDS011;57514;52.164;5.282;2023-01-23T01:40:12;20.13;;;8.20;;
70148;SDS011;57514;52.164;5.282;2023-01-23T01:45:54;19.27;;;7.78;;
70148;SDS011;57514;52.164;5.282;2023-01-23T01:47:54;18.75;;;7.32;;
70148;SDS011;57514;52.164;5.282;2023-01-23T01:50:21;17.60;;;6.85;;
70148;SDS011;57514;52.164;5.282;2023-01-23T01:52:48;19.50;;;7.88;;
70148;SDS011;57514;52.164;5.282;2023-01-23T01:55:16;20.38;;;8.13;;
70148;SDS011;57514;52.164;5.282;2023-01-23T01:57:43;17.13;;;7.07;;
70148;SDS011;57514;52.164;5.282;2023-01-23T02:00:15;20.55;;;8.25;;
70148;SDS011;57514;52.164;5.282;2023-01-23T02:02:48;18.83;;;7.00;;
70148;SDS011;57514;52.164;5.282;2023-01-23T02:05:19;21.00;;;8.48;;
70148;SDS011;57514;52.164;5.282;2023-01-23T02:07:52;21.00;;;7.97;;
70148;SDS011;57514;52.164;5.282;2023-01-23T02:10:21;20.13;;;8.30;;
70148;SDS011;57514;52.164;5.282;2023-01-23T02:12:50;22.65;;;8.13;;
70148;SDS011;57514;52.164;5.282;2023-01-23T02:15:18;21.00;;;8.73;;
70148;SDS011;57514;52.164;5.282;2023-01-23T02:17:47;17.10;;;7.30;;
70148;SDS011;57514;52.164;5.282;2023-01-23T02:22:49;20.23;;;8.38;;
70148;SDS011;57514;52.164;5.282;2023-01-23T02:25:27;20.27;;;7.85;;
70148;SDS011;57514;52.164;5.282;2023-01-23T02:27:56;21.38;;;8.60;;
70148;SDS011;57514;52.164;5.282;2023-01-23T02:30:24;17.70;;;7.90;;
70148;SDS011;57514;52.164;5.282;2023-01-23T02:32:53;22.02;;;8.30;;
70148;SDS011;57514;52.164;5.282;2023-01-23T02:35:22;18.15;;;7.90;;
70148;SDS011;57514;52.164;5.282;2023-01-23T02:37:55;20.20;;;7.90;;
70148;SDS011;57514;52.164;5.282;2023-01-23T02:42:51;17.10;;;7.13;;
70148;SDS011;57514;52.164;5.282;2023-01-23T02:45:21;16.77;;;7.32;;
70148;SDS011;57514;52.164;5.282;2023-01-23T02:47:48;19.00;;;7.53;;
70148;SDS011;57514;52.164;5.282;2023-01-23T02:50:16;25.60;;;7.90;;
70148;SDS011;57514;52.164;5.282;2023-01-23T02:52:44;21.98;;;8.70;;
70148;SDS011;57514;52.164;5.282;2023-01-23T02:55:12;19.15;;;9.07;;
70148;SDS011;57514;52.164;5.282;2023-01-23T02:57:39;18.42;;;7.93;;
70148;SDS011;57514;52.164;5.282;2023-01-23T03:00:07;16.10;;;7.00;;
70148;SDS011;57514;52.164;5.282;2023-01-23T03:02:47;21.17;;;7.63;;
70148;SDS011;57514;52.164;5.282;2023-01-23T03:05:15;24.77;;;8.63;;
70148;SDS011;57514;52.164;5.282;2023-01-23T03:07:42;21.08;;;8.52;;
70148;SDS011;57514;52.164;5.282;2023-01-23T03:10:10;21.75;;;8.23;;
70148;SDS011;57514;52.164;5.282;2023-01-23T03:12:41;18.58;;;7.88;;
70148;SDS011;57514;52.164;5.282;2023-01-23T03:15:08;18.00;;;7.93;;
70148;SDS011;57514;52.164;5.282;2023-01-23T03:17:36;19.23;;;8.85;;
70148;SDS011;57514;52.164;5.282;2023-01-23T03:20:04;19.88;;;8.25;;
70148;SDS011;57514;52.164;5.282;2023-01-23T03:22:32;18.95;;;7.78;;
70148;SDS011;57514;52.164;5.282;2023-01-23T03:24:59;20.30;;;8.05;;
70148;SDS011;57514;52.164;5.282;2023-01-23T03:27:27;21.67;;;7.63;;
70148;SDS011;57514;52.164;5.282;2023-01-23T03:29:55;19.10;;;7.97;;
70148;SDS011;57514;52.164;5.282;2023-01-23T03:32:42;16.73;;;6.95;;
70148;SDS011;57514;52.164;5.282;2023-01-23T03:35:10;21.90;;;7.95;;
70148;SDS011;57514;52.164;5.282;2023-01-23T03:37:42;16.52;;;7.30;;
70148;SDS011;57514;52.164;5.282;2023-01-23T03:40:15;20.45;;;7.53;;
70148;SDS011;57514;52.164;5.282;2023-01-23T03:43:03;17.63;;;7.32;;
70148;SDS011;57514;52.164;5.282;2023-01-23T03:45:32;18.52;;;6.93;;
70148;SDS011;57514;52.164;5.282;2023-01-23T03:48:00;19.33;;;8.02;;
70148;SDS011;57514;52.164;5.282;2023-01-23T03:50:28;18.00;;;7.47;;
70148;SDS011;57514;52.164;5.282;2023-01-23T03:52:56;19.77;;;7.53;;
70148;SDS011;57514;52.164;5.282;2023-01-23T03:55:23;18.27;;;7.40;;
70148;SDS011;57514;52.164;5.282;2023-01-23T03:57:51;18.88;;;7.68;;
70148;SDS011;57514;52.164;5.282;2023-01-23T04:00:25;19.20;;;7.60;;
70148;SDS011;57514;52.164;5.282;2023-01-23T04:03:00;20.58;;;8.05;;
70148;SDS011;57514;52.164;5.282;2023-01-23T04:05:27;20.98;;;8.88;;
70148;SDS011;57514;52.164;5.282;2023-01-23T04:07:55;20.17;;;7.53;;
70148;SDS011;57514;52.164;5.282;2023-01-23T04:10:22;19.88;;;7.82;;
70148;SDS011;57514;52.164;5.282;2023-01-23T04:12:57;17.80;;;7.25;;
70148;SDS011;57514;52.164;5.282;2023-01-23T04:15:25;20.70;;;8.32;;
70148;SDS011;57514;52.164;5.282;2023-01-23T04:17:54;21.63;;;7.72;;
70148;SDS011;57514;52.164;5.282;2023-01-23T04:20:23;22.55;;;8.02;;
70148;SDS011;57514;52.164;5.282;2023-01-23T04:22:51;21.92;;;8.90;;
70148;SDS011;57514;52.164;5.282;2023-01-23T04:25:19;19.83;;;8.02;;
70148;SDS011;57514;52.164;5.282;2023-01-23T04:27:46;21.30;;;7.80;;
70148;SDS011;57514;52.164;5.282;2023-01-23T04:30:13;20.33;;;7.60;;
70148;SDS011;57514;52.164;5.282;2023-01-23T04:32:41;26.45;;;8.70;;
70148;SDS011;57514;52.164;5.282;2023-01-23T04:35:08;18.50;;;7.72;;
70148;SDS011;57514;52.164;5.282;2023-01-23T04:37:38;21.77;;;8.43;;
70148;SDS011;57514;52.164;5.282;2023-01-23T04:40:06;25.85;;;8.80;;
70148;SDS011;57514;52.164;5.282;2023-01-23T04:42:43;18.30;;;8.05;;
70148;SDS011;57514;52.164;5.282;2023-01-23T04:45:24;23.27;;;8.30;;
70148;SDS011;57514;52.164;5.282;2023-01-23T04:48:10;20.58;;;7.68;;
70148;SDS011;57514;52.164;5.282;2023-01-23T04:50:38;21.45;;;8.50;;
70148;SDS011;57514;52.164;5.282;2023-01-23T04:53:06;21.58;;;8.23;;
70148;SDS011;57514;52.164;5.282;2023-01-23T04:55:33;18.58;;;8.02;;
70148;SDS011;57514;52.164;5.282;2023-01-23T04:58:03;22.27;;;8.07;;
70148;SDS011;57514;52.164;5.282;2023-01-23T05:00:31;22.23;;;8.30;;
70148;SDS011;57514;52.164;5.282;2023-01-23T05:03:00;24.85;;;9.35;;
70148;SDS011;57514;52.164;5.282;2023-01-23T05:05:29;20.00;;;7.88;;
70148;SDS011;57514;52.164;5.282;2023-01-23T05:07:58;21.23;;;8.57;;
70148;SDS011;57514;52.164;5.282;2023-01-23T05:10:27;19.88;;;8.55;;
70148;SDS011;57514;52.164;5.282;2023-01-23T05:12:56;20.73;;;8.52;;
70148;SDS011;57514;52.164;5.282;2023-01-23T05:15:24;23.67;;;9.02;;
70148;SDS011;57514;52.164;5.282;2023-01-23T05:17:51;22.17;;;8.68;;
70148;SDS011;57514;52.164;5.282;2023-01-23T05:20:19;21.88;;;8.20;;
70148;SDS011;57514;52.164;5.282;2023-01-23T05:22:46;20.40;;;8.82;;
70148;SDS011;57514;52.164;5.282;2023-01-23T05:25:29;18.70;;;8.07;;
70148;SDS011;57514;52.164;5.282;2023-01-23T05:27:57;20.55;;;8.07;;
70148;SDS011;57514;52.164;5.282;2023-01-23T05:30:25;18.70;;;7.75;;
70148;SDS011;57514;52.164;5.282;2023-01-23T05:33:05;25.55;;;8.88;;
70148;SDS011;57514;52.164;5.282;2023-01-23T05:35:32;22.75;;;8.52;;
70148;SDS011;57514;52.164;5.282;2023-01-23T05:37:59;20.10;;;8.20;;
70148;SDS011;57514;52.164;5.282;2023-01-23T05:40:27;22.58;;;8.60;;
70148;SDS011;57514;52.164;5.282;2023-01-23T05:43:13;20.98;;;8.73;;
70148;SDS011;57514;52.164;5.282;2023-01-23T05:45:59;23.05;;;8.85;;
70148;SDS011;57514;52.164;5.282;2023-01-23T05:48:38;24.95;;;8.23;;
70148;SDS011;57514;52.164;5.282;2023-01-23T05:51:08;22.88;;;8.45;;
70148;SDS011;57514;52.164;5.282;2023-01-23T05:53:36;21.75;;;7.38;;
70148;SDS011;57514;52.164;5.282;2023-01-23T05:56:05;22.73;;;9.23;;
70148;SDS011;57514;52.164;5.282;2023-01-23T05:58:37;20.73;;;8.73;;
70148;SDS011;57514;52.164;5.282;2023-01-23T06:01:29;18.80;;;7.68;;
70148;SDS011;57514;52.164;5.282;2023-01-23T06:04:25;25.10;;;9.93;;
70148;SDS011;57514;52.164;5.282;2023-01-23T06:07:18;22.23;;;9.45;;
70148;SDS011;57514;52.164;5.282;2023-01-23T06:09:49;24.67;;;9.68;;
70148;SDS011;57514;52.164;5.282;2023-01-23T06:12:17;27.42;;;10.25;;
70148;SDS011;57514;52.164;5.282;2023-01-23T06:14:45;24.25;;;10.02;;
70148;SDS011;57514;52.164;5.282;2023-01-23T06:17:12;24.15;;;9.32;;
70148;SDS011;57514;52.164;5.282;2023-01-23T06:19:40;21.23;;;9.18;;
70148;SDS011;57514;52.164;5.282;2023-01-23T06:22:09;21.80;;;9.05;;
70148;SDS011;57514;52.164;5.282;2023-01-23T06:24:54;23.80;;;10.05;;
70148;SDS011;57514;52.164;5.282;2023-01-23T06:27:22;21.55;;;9.65;;
70148;SDS011;57514;52.164;5.282;2023-01-23T06:29:50;22.48;;;9.50;;
70148;SDS011;57514;52.164;5.282;2023-01-23T06:32:17;25.42;;;9.32;;
70148;SDS011;57514;52.164;5.282;2023-01-23T06:34:45;22.02;;;8.73;;
70148;SDS011;57514;52.164;5.282;2023-01-23T06:37:13;23.15;;;9.25;;
70148;SDS011;57514;52.164;5.282;2023-01-23T06:39:42;21.88;;;9.05;;
70148;SDS011;57514;52.164;5.282;2023-01-23T06:42:11;24.10;;;9.25;;
70148;SDS011;57514;52.164;5.282;2023-01-23T06:44:43;22.60;;;9.10;;
70148;SDS011;57514;52.164;5.282;2023-01-23T06:47:12;26.15;;;10.52;;
70148;SDS011;57514;52.164;5.282;2023-01-23T06:49:41;24.60;;;9.65;;
70148;SDS011;57514;52.164;5.282;2023-01-23T06:52:08;22.08;;;8.82;;
70148;SDS011;57514;52.164;5.282;2023-01-23T06:54:36;25.65;;;10.25;;
70148;SDS011;57514;52.164;5.282;2023-01-23T06:57:04;24.65;;;11.00;;
70148;SDS011;57514;52.164;5.282;2023-01-23T06:59:32;25.48;;;11.80;;
70148;SDS011;57514;52.164;5.282;2023-01-23T07:02:02;27.38;;;10.70;;
70148;SDS011;57514;52.164;5.282;2023-01-23T07:04:40;29.25;;;10.00;;
70148;SDS011;57514;52.164;5.282;2023-01-23T07:07:08;22.75;;;9.05;;
70148;SDS011;57514;52.164;5.282;2023-01-23T07:09:37;22.80;;;9.70;;
70148;SDS011;57514;52.164;5.282;2023-01-23T07:12:09;24.83;;;9.38;;
70148;SDS011;57514;52.164;5.282;2023-01-23T07:14:37;22.50;;;9.70;;
70148;SDS011;57514;52.164;5.282;2023-01-23T07:17:07;26.42;;;10.77;;
70148;SDS011;57514;52.164;5.282;2023-01-23T07:19:34;25.67;;;9.93;;
70148;SDS011;57514;52.164;5.282;2023-01-23T07:22:05;23.98;;;8.98;;
70148;SDS011;57514;52.164;5.282;2023-01-23T07:24:32;23.70;;;9.25;;
70148;SDS011;57514;52.164;5.282;2023-01-23T07:27:00;29.35;;;10.25;;
70148;SDS011;57514;52.164;5.282;2023-01-23T07:29:27;23.40;;;9.57;;
70148;SDS011;57514;52.164;5.282;2023-01-23T07:31:54;26.65;;;9.45;;
70148;SDS011;57514;52.164;5.282;2023-01-23T07:34:21;24.92;;;9.20;;
70148;SDS011;57514;52.164;5.282;2023-01-23T07:36:48;23.35;;;10.20;;
70148;SDS011;57514;52.164;5.282;2023-01-23T07:39:16;20.80;;;9.05;;
70148;SDS011;57514;52.164;5.282;2023-01-23T07:41:43;26.05;;;9.40;;
70148;SDS011;57514;52.164;5.282;2023-01-23T07:44:16;19.73;;;8.88;;
70148;SDS011;57514;52.164;5.282;2023-01-23T07:46:44;25.52;;;9.68;;
70148;SDS011;57514;52.164;5.282;2023-01-23T07:49:12;22.70;;;9.23;;
70148;SDS011;57514;52.164;5.282;2023-01-23T07:51:39;25.38;;;10.55;;
70148;SDS011;57514;52.164;5.282;2023-01-23T07:54:07;30.42;;;13.73;;
70148;SDS011;57514;52.164;5.282;2023-01-23T07:56:34;27.13;;;11.45;;
70148;SDS011;57514;52.164;5.282;2023-01-23T07:59:02;54.33;;;23.73;;
70148;SDS011;57514;52.164;5.282;2023-01-23T08:01:29;60.47;;;26.05;;
70148;SDS011;57514;52.164;5.282;2023-01-23T08:03:56;40.05;;;18.95;;
70148;SDS011;57514;52.164;5.282;2023-01-23T08:06:23;42.78;;;19.50;;
70148;SDS011;57514;52.164;5.282;2023-01-23T08:08:50;33.53;;;14.48;;
70148;SDS011;57514;52.164;5.282;2023-01-23T08:11:18;29.50;;;13.63;;
70148;SDS011;57514;52.164;5.282;2023-01-23T08:13:49;28.05;;;11.68;;
70148;SDS011;57514;52.164;5.282;2023-01-23T08:16:16;29.65;;;17.23;;
70148;SDS011;57514;52.164;5.282;2023-01-23T08:18:43;35.33;;;16.42;;
70148;SDS011;57514;52.164;5.282;2023-01-23T08:21:11;25.45;;;11.35;;
70148;SDS011;57514;52.164;5.282;2023-01-23T08:23:38;23.50;;;9.30;;
70148;SDS011;57514;52.164;5.282;2023-01-23T08:26:06;27.58;;;11.55;;
70148;SDS011;57514;52.164;5.282;2023-01-23T08:28:34;30.02;;;11.35;;
70148;SDS011;57514;52.164;5.282;2023-01-23T08:31:03;28.67;;;10.85;;
70148;SDS011;57514;52.164;5.282;2023-01-23T08:33:32;29.63;;;11.60;;
70148;SDS011;57514;52.164;5.282;2023-01-23T08:35:59;32.65;;;10.32;;
70148;SDS011;57514;52.164;5.282;2023-01-23T08:38:26;31.75;;;11.98;;
70148;SDS011;57514;52.164;5.282;2023-01-23T08:40:56;23.92;;;11.63;;
70148;SDS011;57514;52.164;5.282;2023-01-23T08:43:24;25.08;;;11.45;;
70148;SDS011;57514;52.164;5.282;2023-01-23T08:45:52;25.38;;;11.77;;
70148;SDS011;57514;52.164;5.282;2023-01-23T08:48:20;24.33;;;11.50;;
70148;SDS011;57514;52.164;5.282;2023-01-23T08:50:48;27.35;;;11.20;;
70148;SDS011;57514;52.164;5.282;2023-01-23T08:53:16;33.60;;;12.27;;
70148;SDS011;57514;52.164;5.282;2023-01-23T08:55:43;34.50;;;14.52;;
70148;SDS011;57514;52.164;5.282;2023-01-23T08:58:10;33.47;;;17.02;;
70148;SDS011;57514;52.164;5.282;2023-01-23T09:00:38;30.40;;;13.27;;
70148;SDS011;57514;52.164;5.282;2023-01-23T09:03:06;25.38;;;11.63;;
70148;SDS011;57514;52.164;5.282;2023-01-23T09:05:36;28.02;;;12.05;;
70148;SDS011;57514;52.164;5.282;2023-01-23T09:08:03;24.33;;;11.32;;
70148;SDS011;57514;52.164;5.282;2023-01-23T09:10:31;29.38;;;13.90;;
70148;SDS011;57514;52.164;5.282;2023-01-23T09:12:59;29.67;;;13.02;;
70148;SDS011;57514;52.164;5.282;2023-01-23T09:15:29;32.22;;;13.15;;
70148;SDS011;57514;52.164;5.282;2023-01-23T09:17:56;28.80;;;12.45;;
70148;SDS011;57514;52.164;5.282;2023-01-23T09:20:23;24.27;;;11.90;;
70148;SDS011;57514;52.164;5.282;2023-01-23T09:22:52;28.67;;;11.52;;
70148;SDS011;57514;52.164;5.282;2023-01-23T09:25:19;26.38;;;11.13;;
70148;SDS011;57514;52.164;5.282;2023-01-23T09:27:46;25.75;;;11.93;;
70148;SDS011;57514;52.164;5.282;2023-01-23T09:30:14;26.08;;;12.15;;
70148;SDS011;57514;52.164;5.282;2023-01-23T09:32:41;32.90;;;13.13;;
70148;SDS011;57514;52.164;5.282;2023-01-23T09:35:08;29.38;;;13.30;;
70148;SDS011;57514;52.164;5.282;2023-01-23T09:37:35;26.85;;;12.00;;
70148;SDS011;57514;52.164;5.282;2023-01-23T09:40:29;30.05;;;13.70;;
70148;SDS011;57514;52.164;5.282;2023-01-23T09:43:02;29.70;;;13.77;;
70148;SDS011;57514;52.164;5.282;2023-01-23T09:45:30;24.08;;;10.68;;
70148;SDS011;57514;52.164;5.282;2023-01-23T09:48:09;27.85;;;13.35;;
70148;SDS011;57514;52.164;5.282;2023-01-23T09:50:43;29.23;;;17.33;;
70148;SDS011;57514;52.164;5.282;2023-01-23T09:53:14;32.05;;;17.25;;
70148;SDS011;57514;52.164;5.282;2023-01-23T09:55:43;30.35;;;14.77;;
70148;SDS011;57514;52.164;5.282;2023-01-23T09:58:18;26.08;;;12.65;;
70148;SDS011;57514;52.164;5.282;2023-01-23T10:00:48;27.88;;;13.07;;
70148;SDS011;57514;52.164;5.282;2023-01-23T10:03:17;27.10;;;13.35;;
70148;SDS011;57514;52.164;5.282;2023-01-23T10:06:07;28.67;;;13.65;;
70148;SDS011;57514;52.164;5.282;2023-01-23T10:19:22;27.83;;;12.27;;
70148;SDS011;57514;52.164;5.282;2023-01-23T10:24:52;25.50;;;10.88;;
70148;SDS011;57514;52.164;5.282;2023-01-23T10:27:31;24.85;;;11.60;;
70148;SDS011;57514;52.164;5.282;2023-01-23T10:30:01;25.90;;;12.38;;
70148;SDS011;57514;52.164;5.282;2023-01-23T10:32:36;25.75;;;12.05;;
70148;SDS011;57514;52.164;5.282;2023-01-23T10:35:11;25.88;;;11.35;;
70148;SDS011;57514;52.164;5.282;2023-01-23T10:40:25;23.98;;;11.57;;
70148;SDS011;57514;52.164;5.282;2023-01-23T10:43:11;27.50;;;12.73;;
70148;SDS011;57514;52.164;5.282;2023-01-23T10:45:39;26.13;;;11.20;;
70148;SDS011;57514;52.164;5.282;2023-01-23T10:48:26;24.80;;;11.35;;
70148;SDS011;57514;52.164;5.282;2023-01-23T10:50:53;24.38;;;10.68;;
70148;SDS011;57514;52.164;5.282;2023-01-23T10:53:22;26.25;;;11.90;;
70148;SDS011;57514;52.164;5.282;2023-01-23T10:55:51;26.05;;;12.38;;
70148;SDS011;57514;52.164;5.282;2023-01-23T10:58:39;25.13;;;12.13;;
70148;SDS011;57514;52.164;5.282;2023-01-23T11:01:22;22.38;;;10.75;;
70148;SDS011;57514;52.164;5.282;2023-01-23T11:03:51;24.52;;;11.20;;
70148;SDS011;57514;52.164;5.282;2023-01-23T11:06:22;22.65;;;10.75;;
70148;SDS011;57514;52.164;5.282;2023-01-23T11:11:23;21.85;;;10.75;;
70148;SDS011;57514;52.164;5.282;2023-01-23T11:16:36;23.70;;;10.95;;
70148;SDS011;57514;52.164;5.282;2023-01-23T11:26:35;21.80;;;11.13;;
70148;SDS011;57514;52.164;5.282;2023-01-23T11:29:17;20.00;;;11.65;;
70148;SDS011;57514;52.164;5.282;2023-01-23T11:31:45;18.63;;;9.88;;
70148;SDS011;57514;52.164;5.282;2023-01-23T11:34:13;18.48;;;10.00;;
70148;SDS011;57514;52.164;5.282;2023-01-23T11:36:53;21.45;;;12.15;;
70148;SDS011;57514;52.164;5.282;2023-01-23T11:39:35;21.02;;;11.40;;
70148;SDS011;57514;52.164;5.282;2023-01-23T11:42:13;18.13;;;10.90;;
70148;SDS011;57514;52.164;5.282;2023-01-23T11:44:41;19.23;;;10.80;;
70148;SDS011;57514;52.164;5.282;2023-01-23T11:50:02;20.20;;;10.93;;
70148;SDS011;57514;52.164;5.282;2023-01-23T11:55:13;21.50;;;12.25;;
70148;SDS011;57514;52.164;5.282;2023-01-23T11:57:48;21.20;;;10.70;;
70148;SDS011;57514;52.164;5.282;2023-01-23T12:00:31;19.00;;;10.43;;
70148;SDS011;57514;52.164;5.282;2023-01-23T12:03:12;19.55;;;9.63;;
70148;SDS011;57514;52.164;5.282;2023-01-23T12:09:14;21.90;;;11.13;;
70148;SDS011;57514;52.164;5.282;2023-01-23T12:14:25;22.55;;;10.95;;
70148;SDS011;57514;52.164;5.282;2023-01-23T12:17:13;24.20;;;9.90;;
70148;SDS011;57514;52.164;5.282;2023-01-23T12:19:52;18.33;;;9.35;;
70148;SDS011;57514;52.164;5.282;2023-01-23T12:25:19;18.60;;;8.57;;
70148;SDS011;57514;52.164;5.282;2023-01-23T12:27:49;20.02;;;9.23;;
70148;SDS011;57514;52.164;5.282;2023-01-23T12:30:26;22.70;;;10.30;;
70148;SDS011;57514;52.164;5.282;2023-01-23T12:38:09;19.27;;;8.65;;
70148;SDS011;57514;52.164;5.282;2023-01-23T12:40:41;18.65;;;8.55;;
70148;SDS011;57514;52.164;5.282;2023-01-23T12:43:12;20.83;;;9.45;;
70148;SDS011;57514;52.164;5.282;2023-01-23T12:45:42;19.02;;;9.20;;
70148;SDS011;57514;52.164;5.282;2023-01-23T12:48:13;19.65;;;8.80;;
70148;SDS011;57514;52.164;5.282;2023-01-23T12:50:44;18.38;;;8.88;;
70148;SDS011;57514;52.164;5.282;2023-01-23T12:53:14;19.15;;;9.10;;
70148;SDS011;57514;52.164;5.282;2023-01-23T12:55:53;20.75;;;9.80;;
70148;SDS011;57514;52.164;5.282;2023-01-23T12:58:22;18.25;;;9.02;;
70148;SDS011;57514;52.164;5.282;2023-01-23T13:00:58;16.88;;;9.05;;
70148;SDS011;57514;52.164;5.282;2023-01-23T13:06:32;20.65;;;9.32;;
70148;SDS011;57514;52.164;5.282;2023-01-23T13:09:03;18.63;;;8.90;;
70148;SDS011;57514;52.164;5.282;2023-01-23T13:11:46;19.08;;;8.63;;
70148;SDS011;57514;52.164;5.282;2023-01-23T13:14:38;19.67;;;8.50;;
70148;SDS011;57514;52.164;5.282;2023-01-23T13:26:09;19.90;;;8.85;;
70148;SDS011;57514;52.164;5.282;2023-01-23T13:28:47;16.75;;;7.75;;
70148;SDS011;57514;52.164;5.282;2023-01-23T13:33:52;19.20;;;8.25;;
70148;SDS011;57514;52.164;5.282;2023-01-23T13:36:35;20.90;;;10.02;;
70148;SDS011;57514;52.164;5.282;2023-01-23T13:39:09;15.93;;;7.78;;
70148;SDS011;57514;52.164;5.282;2023-01-23T13:41:46;18.75;;;7.38;;
70148;SDS011;57514;52.164;5.282;2023-01-23T13:44:26;17.73;;;7.65;;
70148;SDS011;57514;52.164;5.282;2023-01-23T13:50:13;16.25;;;7.90;;
70148;SDS011;57514;52.164;5.282;2023-01-23T13:52:57;15.75;;;7.28;;
70148;SDS011;57514;52.164;5.282;2023-01-23T13:55:57;16.40;;;7.97;;
70148;SDS011;57514;52.164;5.282;2023-01-23T13:58:56;16.52;;;7.53;;
70148;SDS011;57514;52.164;5.282;2023-01-23T14:01:40;15.05;;;6.90;;
70148;SDS011;57514;52.164;5.282;2023-01-23T14:04:43;12.75;;;5.97;;
70148;SDS011;57514;52.164;5.282;2023-01-23T14:07:48;15.95;;;6.97;;
70148;SDS011;57514;52.164;5.282;2023-01-23T14:10:32;12.50;;;3.90;;
70148;SDS011;57514;52.164;5.282;2023-01-23T14:13:16;13.55;;;6.38;;
70148;SDS011;57514;52.164;5.282;2023-01-23T14:15:58;16.75;;;8.10;;
70148;SDS011;57514;52.164;5.282;2023-01-23T14:18:58;14.32;;;6.55;;
70148;SDS011;57514;52.164;5.282;2023-01-23T14:21:39;18.17;;;7.57;;
70148;SDS011;57514;52.164;5.282;2023-01-23T14:24:19;18.75;;;7.68;;
70148;SDS011;57514;52.164;5.282;2023-01-23T14:26:48;18.23;;;7.93;;
70148;SDS011;57514;52.164;5.282;2023-01-23T14:29:20;18.60;;;7.88;;
70148;SDS011;57514;52.164;5.282;2023-01-23T14:31:47;18.30;;;8.43;;
70148;SDS011;57514;52.164;5.282;2023-01-23T14:34:17;16.40;;;7.35;;
70148;SDS011;57514;52.164;5.282;2023-01-23T14:36:49;20.45;;;8.00;;
70148;SDS011;57514;52.164;5.282;2023-01-23T14:39:17;17.73;;;8.80;;
70148;SDS011;57514;52.164;5.282;2023-01-23T14:41:46;17.70;;;8.93;;
70148;SDS011;57514;52.164;5.282;2023-01-23T14:44:20;19.45;;;9.27;;
70148;SDS011;57514;52.164;5.282;2023-01-23T14:46:51;29.25;;;9.25;;
70148;SDS011;57514;52.164;5.282;2023-01-23T14:49:24;21.98;;;9.50;;
70148;SDS011;57514;52.164;5.282;2023-01-23T14:51:56;19.77;;;8.85;;
70148;SDS011;57514;52.164;5.282;2023-01-23T14:54:24;18.45;;;8.32;;
70148;SDS011;57514;52.164;5.282;2023-01-23T14:56:58;19.85;;;10.43;;
70148;SDS011;57514;52.164;5.282;2023-01-23T14:59:28;17.83;;;9.82;;
70148;SDS011;57514;52.164;5.282;2023-01-23T15:01:58;18.25;;;9.60;;
70148;SDS011;57514;52.164;5.282;2023-01-23T15:04:30;18.75;;;9.23;;
70148;SDS011;57514;52.164;5.282;2023-01-23T15:06:58;23.02;;;9.48;;
70148;SDS011;57514;52.164;5.282;2023-01-23T15:09:31;20.95;;;9.35;;
70148;SDS011;57514;52.164;5.282;2023-01-23T15:12:02;17.40;;;8.18;;
70148;SDS011;57514;52.164;5.282;2023-01-23T15:14:35;18.30;;;8.75;;
70148;SDS011;57514;52.164;5.282;2023-01-23T15:17:17;18.58;;;8.88;;
70148;SDS011;57514;52.164;5.282;2023-01-23T15:19:49;16.60;;;7.40;;
70148;SDS011;57514;52.164;5.282;2023-01-23T15:22:20;20.70;;;9.32;;
70148;SDS011;57514;52.164;5.282;2023-01-23T15:24:51;24.48;;;10.43;;
70148;SDS011;57514;52.164;5.282;2023-01-23T15:27:23;22.10;;;10.75;;
70148;SDS011;57514;52.164;5.282;2023-01-23T15:29:51;22.17;;;10.50;;
70148;SDS011;57514;52.164;5.282;2023-01-23T15:32:38;19.52;;;9.18;;
70148;SDS011;57514;52.164;5.282;2023-01-23T15:35:13;20.17;;;9.50;;
70148;SDS011;57514;52.164;5.282;2023-01-23T15:37:46;23.17;;;10.02;;
70148;SDS011;57514;52.164;5.282;2023-01-23T15:40:15;18.75;;;8.13;;
70148;SDS011;57514;52.164;5.282;2023-01-23T15:42:50;19.02;;;8.63;;
70148;SDS011;57514;52.164;5.282;2023-01-23T15:45:27;17.67;;;8.55;;
70148;SDS011;57514;52.164;5.282;2023-01-23T15:47:56;17.60;;;8.57;;
70148;SDS011;57514;52.164;5.282;2023-01-23T15:50:23;15.23;;;7.20;;
70148;SDS011;57514;52.164;5.282;2023-01-23T15:52:52;23.42;;;10.57;;
70148;SDS011;57514;52.164;5.282;2023-01-23T15:55:21;17.80;;;8.30;;
70148;SDS011;57514;52.164;5.282;2023-01-23T15:57:49;18.25;;;8.10;;
70148;SDS011;57514;52.164;5.282;2023-01-23T16:00:22;17.92;;;7.70;;
70148;SDS011;57514;52.164;5.282;2023-01-23T16:02:50;19.38;;;9.68;;
70148;SDS011;57514;52.164;5.282;2023-01-23T16:05:23;17.55;;;8.10;;
70148;SDS011;57514;52.164;5.282;2023-01-23T16:07:50;17.80;;;9.10;;
70148;SDS011;57514;52.164;5.282;2023-01-23T16:10:19;18.60;;;9.73;;